createdAt,value
2022-12-03T00:00:42.927Z,2.71
2022-12-03T00:01:44.304Z,2.70
2022-12-03T00:02:45.708Z,2.71
2022-12-03T00:03:47.275Z,2.72
2022-12-03T00:04:48.916Z,2.71
2022-12-03T00:05:51.085Z,2.68
2022-12-03T00:06:52.641Z,2.62
2022-12-03T00:07:54.100Z,2.61
2022-12-03T00:08:55.533Z,2.60
2022-12-03T00:09:56.880Z,2.64
2022-12-03T00:10:58.246Z,2.60
2022-12-03T00:11:59.639Z,2.58
2022-12-03T00:13:01.011Z,2.57
2022-12-03T00:14:02.347Z,2.55
2022-12-03T00:15:04.225Z,2.56
2022-12-03T00:16:07.014Z,2.56
2022-12-03T00:17:09.828Z,2.55
2022-12-03T00:18:11.229Z,2.54
2022-12-03T00:19:12.688Z,2.54
2022-12-03T00:20:18.790Z,2.53
2022-12-03T00:21:20.128Z,2.53
2022-12-03T00:22:21.494Z,2.53
2022-12-03T00:23:22.951Z,2.54
2022-12-03T00:24:24.322Z,2.53
2022-12-03T00:25:25.837Z,2.51
2022-12-03T00:26:27.458Z,2.54
2022-12-03T00:27:29.231Z,2.58
2022-12-03T00:28:30.612Z,2.58
2022-12-03T00:29:32.085Z,2.60
2022-12-03T00:30:33.532Z,2.60
2022-12-03T00:31:35.342Z,2.59
2022-12-03T00:32:37.159Z,2.59
2022-12-03T00:33:38.473Z,2.59
2022-12-03T00:34:39.783Z,2.60
2022-12-03T00:35:41.244Z,2.55
2022-12-03T00:36:42.560Z,2.59
2022-12-03T00:37:43.916Z,2.60
2022-12-03T00:38:45.436Z,2.61
2022-12-03T00:39:47.642Z,2.62
2022-12-03T00:40:49.027Z,2.62
2022-12-03T00:41:50.349Z,2.63
2022-12-03T00:42:52.739Z,2.64
2022-12-03T00:43:54.166Z,2.66
2022-12-03T00:44:55.776Z,2.69
2022-12-03T00:45:57.386Z,2.70
2022-12-03T00:46:58.801Z,2.72
2022-12-03T00:48:00.208Z,2.73
2022-12-03T00:49:01.571Z,2.75
2022-12-03T00:50:02.915Z,2.76
2022-12-03T00:51:04.406Z,2.77
2022-12-03T00:52:05.791Z,2.79
2022-12-03T00:53:07.175Z,2.81
2022-12-03T00:54:08.594Z,2.81
2022-12-03T00:55:09.956Z,2.77
2022-12-03T00:56:11.329Z,2.83
2022-12-03T00:57:12.717Z,2.83
2022-12-03T00:58:15.336Z,2.87
2022-12-03T00:59:16.680Z,2.85
2022-12-03T01:00:18.087Z,2.88
2022-12-03T01:01:19.570Z,2.89
2022-12-03T01:02:21.040Z,2.89
2022-12-03T01:03:22.568Z,2.90
2022-12-03T01:04:24.001Z,2.89
2022-12-03T01:05:25.456Z,2.83
2022-12-03T01:06:26.824Z,2.84
2022-12-03T01:07:28.288Z,2.84
2022-12-03T01:08:29.725Z,2.85
2022-12-03T01:09:31.114Z,2.88
2022-12-03T01:10:32.472Z,2.91
2022-12-03T01:11:34.261Z,2.91
2022-12-03T01:12:35.759Z,2.92
2022-12-03T01:13:37.115Z,2.91
2022-12-03T01:14:38.469Z,2.97
2022-12-03T01:15:39.827Z,2.97
2022-12-03T01:16:41.346Z,2.94
2022-12-03T01:17:42.743Z,2.93
2022-12-03T01:18:44.096Z,2.91
2022-12-03T01:19:48.463Z,2.91
2022-12-03T01:20:50.088Z,2.89
2022-12-03T01:21:51.757Z,2.89
2022-12-03T01:22:53.204Z,2.89
2022-12-03T01:23:54.586Z,2.91
2022-12-03T01:24:56.083Z,2.93
2022-12-03T01:25:57.558Z,3.02
2022-12-03T01:26:58.950Z,3.02
2022-12-03T01:28:00.317Z,3.01
2022-12-03T01:29:01.620Z,2.97
2022-12-03T01:30:03.920Z,2.99
2022-12-03T01:31:05.361Z,3.02
2022-12-03T01:32:06.715Z,3.05
2022-12-03T01:33:08.037Z,3.03
2022-12-03T01:34:10.581Z,3.03
2022-12-03T01:35:11.967Z,3.09
2022-12-03T01:36:13.336Z,3.07
2022-12-03T01:37:15.496Z,3.02
2022-12-03T01:38:17.058Z,2.98
2022-12-03T01:39:19.707Z,2.96
2022-12-03T01:40:21.550Z,2.96
2022-12-03T01:41:24.154Z,2.92
2022-12-03T01:42:34.277Z,2.99
2022-12-03T01:43:36.158Z,2.97
2022-12-03T01:44:39.264Z,2.99
2022-12-03T01:45:40.651Z,3.00
2022-12-03T01:46:42.357Z,3.01
2022-12-03T01:47:43.769Z,3.01
2022-12-03T01:48:45.715Z,3.02
2022-12-03T01:49:49.507Z,3.00
2022-12-03T01:50:50.922Z,2.96
2022-12-03T01:51:53.247Z,2.96
2022-12-03T01:52:55.873Z,2.97
2022-12-03T01:53:57.936Z,2.96
2022-12-03T01:55:00.521Z,2.98
2022-12-03T01:56:02.076Z,2.99
2022-12-03T01:57:03.741Z,2.98
2022-12-03T01:58:05.116Z,3.04
2022-12-03T01:59:06.477Z,2.99
2022-12-03T02:00:12.321Z,3.00
2022-12-03T02:01:17.638Z,2.99
2022-12-03T02:02:21.756Z,2.99
2022-12-03T02:03:24.705Z,2.99
2022-12-03T02:04:26.165Z,2.99
2022-12-03T02:05:29.116Z,2.91
2022-12-03T02:06:30.514Z,3.02
2022-12-03T02:07:33.278Z,2.98
2022-12-03T02:08:36.242Z,2.97
2022-12-03T02:09:37.584Z,2.94
2022-12-03T02:10:38.961Z,2.92
2022-12-03T02:11:45.233Z,2.98
2022-12-03T02:12:48.239Z,2.98
2022-12-03T02:13:51.588Z,2.96
2022-12-03T02:14:54.418Z,2.92
2022-12-03T02:15:56.113Z,2.99
2022-12-03T02:16:57.459Z,2.95
2022-12-03T02:17:59.463Z,2.93
2022-12-03T02:19:01.211Z,2.92
2022-12-03T02:20:04.353Z,2.90
2022-12-03T02:21:10.612Z,2.92
2022-12-03T02:22:18.035Z,2.87
2022-12-03T02:23:37.980Z,2.88
2022-12-03T02:24:42.443Z,2.88
2022-12-03T02:25:43.848Z,2.89
2022-12-03T02:26:45.199Z,2.89
2022-12-03T02:27:47.728Z,2.91
2022-12-03T02:28:49.090Z,2.94
2022-12-03T02:29:50.949Z,2.90
2022-12-03T02:30:52.335Z,2.93
2022-12-03T02:31:53.801Z,2.94
2022-12-03T02:32:55.838Z,2.94
2022-12-03T02:33:57.194Z,2.90
2022-12-03T02:34:58.544Z,2.89
2022-12-03T02:36:03.488Z,2.88
2022-12-03T02:37:07.389Z,2.90
2022-12-03T02:38:08.716Z,2.95
2022-12-03T02:39:10.109Z,2.91
2022-12-03T02:40:13.650Z,2.92
2022-12-03T02:41:16.867Z,2.90
2022-12-03T02:42:19.229Z,2.91
2022-12-03T02:43:21.570Z,2.90
2022-12-03T02:44:22.943Z,2.87
2022-12-03T02:45:26.522Z,2.86
2022-12-03T02:46:27.930Z,2.85
2022-12-03T02:47:30.434Z,2.87
2022-12-03T02:48:37.109Z,2.87
2022-12-03T02:49:38.568Z,2.89
2022-12-03T02:50:41.471Z,2.96
2022-12-03T02:51:42.824Z,2.97
2022-12-03T02:52:46.361Z,2.98
2022-12-03T02:53:48.606Z,2.94
2022-12-03T02:54:51.504Z,2.99
2022-12-03T02:55:54.418Z,2.98
2022-12-03T02:56:55.809Z,2.99
2022-12-03T02:57:57.577Z,2.96
2022-12-03T02:59:01.611Z,2.92
2022-12-03T03:00:04.061Z,2.95
2022-12-03T03:01:05.906Z,2.94
2022-12-03T03:02:07.466Z,2.96
2022-12-03T03:03:10.040Z,2.94
2022-12-03T03:04:11.423Z,2.96
2022-12-03T03:05:13.857Z,2.95
2022-12-03T03:06:15.512Z,2.93
2022-12-03T03:07:16.860Z,2.94
2022-12-03T03:08:18.580Z,2.93
2022-12-03T03:09:20.536Z,2.96
2022-12-03T03:10:23.081Z,2.98
2022-12-03T03:11:24.994Z,2.94
2022-12-03T03:12:26.737Z,2.91
2022-12-03T03:13:29.744Z,2.92
2022-12-03T03:14:31.907Z,2.93
2022-12-03T03:15:35.363Z,2.91
2022-12-03T03:16:36.905Z,2.84
2022-12-03T03:17:38.996Z,2.84
2022-12-03T03:18:40.459Z,2.84
2022-12-03T03:19:41.997Z,2.87
2022-12-03T03:20:43.976Z,2.89
2022-12-03T03:21:45.354Z,2.92
2022-12-03T03:22:46.704Z,2.97
2022-12-03T03:23:48.099Z,2.92
2022-12-03T03:24:49.447Z,2.98
2022-12-03T03:25:58.981Z,2.92
2022-12-03T03:27:00.311Z,2.92
2022-12-03T03:28:01.722Z,2.93
2022-12-03T03:29:03.162Z,2.91
2022-12-03T03:30:04.971Z,2.88
2022-12-03T03:31:07.896Z,2.89
2022-12-03T03:32:09.337Z,2.94
2022-12-03T03:33:12.549Z,2.91
2022-12-03T03:34:14.667Z,2.94
2022-12-03T03:35:16.022Z,2.91
2022-12-03T03:36:17.913Z,2.93
2022-12-03T03:37:19.401Z,2.92
2022-12-03T03:38:22.017Z,2.91
2022-12-03T03:39:23.551Z,2.85
2022-12-03T03:40:25.351Z,2.89
2022-12-03T03:41:27.679Z,2.88
2022-12-03T03:42:29.027Z,2.91
2022-12-03T03:43:30.897Z,2.93
2022-12-03T03:44:32.838Z,2.95
2022-12-03T03:45:34.289Z,2.92
2022-12-03T03:46:36.643Z,2.95
2022-12-03T03:47:38.344Z,2.94
2022-12-03T03:48:41.352Z,2.88
2022-12-03T03:49:42.940Z,2.89
2022-12-03T03:50:44.552Z,2.92
2022-12-03T03:51:46.309Z,2.89
2022-12-03T03:52:47.682Z,2.85
2022-12-03T03:53:49.654Z,2.86
2022-12-03T03:54:51.177Z,2.84
2022-12-03T03:55:52.729Z,2.79
2022-12-03T03:56:54.148Z,2.78
2022-12-03T03:57:55.968Z,2.75
2022-12-03T03:58:57.587Z,2.78
2022-12-03T03:59:59.355Z,2.77
2022-12-03T04:01:01.001Z,2.76
2022-12-03T04:02:02.539Z,2.77
2022-12-03T04:03:04.688Z,2.79
2022-12-03T04:04:13.325Z,2.83
2022-12-03T04:05:20.083Z,2.84
2022-12-03T04:06:21.458Z,2.82
2022-12-03T04:07:22.851Z,2.89
2022-12-03T04:08:24.191Z,2.89
2022-12-03T04:09:25.517Z,2.87
2022-12-03T04:10:26.958Z,2.85
2022-12-03T04:11:28.845Z,2.85
2022-12-03T04:12:30.455Z,2.82
2022-12-03T04:13:32.279Z,2.82
2022-12-03T04:14:33.652Z,2.82
2022-12-03T04:15:35.044Z,2.78
2022-12-03T04:16:36.423Z,2.87
2022-12-03T04:17:37.854Z,2.89
2022-12-03T04:18:39.241Z,2.83
2022-12-03T04:19:40.596Z,2.87
2022-12-03T04:20:41.959Z,2.87
2022-12-03T04:21:43.268Z,2.84
2022-12-03T04:22:44.612Z,2.81
2022-12-03T04:23:45.942Z,2.82
2022-12-03T04:24:47.326Z,2.82
2022-12-03T04:25:48.666Z,2.80
2022-12-03T04:26:50.019Z,2.84
2022-12-03T04:27:52.393Z,2.83
2022-12-03T04:28:53.853Z,2.83
2022-12-03T04:29:55.200Z,2.83
2022-12-03T04:30:56.946Z,2.79
2022-12-03T04:31:58.377Z,2.77
2022-12-03T04:32:59.785Z,2.76
2022-12-03T04:34:01.108Z,2.74
2022-12-03T04:35:02.513Z,2.76
2022-12-03T04:36:04.201Z,2.78
2022-12-03T04:37:06.076Z,2.80
2022-12-03T04:38:07.488Z,2.82
2022-12-03T04:39:08.867Z,2.81
2022-12-03T04:40:10.305Z,2.79
2022-12-03T04:41:11.672Z,2.78
2022-12-03T04:42:13.076Z,2.81
2022-12-03T04:43:14.437Z,2.79
2022-12-03T04:44:15.760Z,2.83
2022-12-03T04:45:17.157Z,2.83
2022-12-03T04:46:18.572Z,2.83
2022-12-03T04:47:21.256Z,2.83
2022-12-03T04:48:22.604Z,2.82
2022-12-03T04:49:24.192Z,2.81
2022-12-03T04:50:25.562Z,2.83
2022-12-03T04:51:26.905Z,2.84
2022-12-03T04:52:28.260Z,2.84
2022-12-03T04:53:29.581Z,2.85
2022-12-03T04:54:31.041Z,2.85
2022-12-03T04:55:32.387Z,2.88
2022-12-03T04:56:33.748Z,2.87
2022-12-03T04:57:35.078Z,2.89
2022-12-03T04:58:36.410Z,2.90
2022-12-03T04:59:38.227Z,2.90
2022-12-03T05:00:39.548Z,2.89
2022-12-03T05:01:40.963Z,2.89
2022-12-03T05:02:42.393Z,2.93
2022-12-03T05:03:43.764Z,2.90
2022-12-03T05:04:45.137Z,2.90
2022-12-03T05:05:46.552Z,2.90
2022-12-03T05:06:47.918Z,2.90
2022-12-03T05:07:49.331Z,2.91
2022-12-03T05:08:50.772Z,2.92
2022-12-03T05:09:52.143Z,2.90
2022-12-03T05:10:53.573Z,2.95
2022-12-03T05:11:54.932Z,2.93
2022-12-03T05:12:56.666Z,2.94
2022-12-03T05:13:58.173Z,2.97
2022-12-03T05:14:59.554Z,2.98
2022-12-03T05:16:00.910Z,2.99
2022-12-03T05:17:02.412Z,2.96
2022-12-03T05:18:06.012Z,2.97
2022-12-03T05:19:07.751Z,2.94
2022-12-03T05:20:09.379Z,2.91
2022-12-03T05:21:10.760Z,2.88
2022-12-03T05:22:12.180Z,2.86
2022-12-03T05:23:14.208Z,2.87
2022-12-03T05:24:15.639Z,2.85
2022-12-03T05:25:17.036Z,2.84
2022-12-03T05:26:18.437Z,2.86
2022-12-03T05:27:23.708Z,2.90
2022-12-03T05:28:25.654Z,2.88
2022-12-03T05:29:27.063Z,2.87
2022-12-03T05:30:28.501Z,2.96
2022-12-03T05:31:31.408Z,2.91
2022-12-03T05:32:32.921Z,2.90
2022-12-03T05:33:35.584Z,2.86
2022-12-03T05:34:38.808Z,2.87
2022-12-03T05:35:40.159Z,2.89
2022-12-03T05:36:41.520Z,2.92
2022-12-03T05:37:43.159Z,2.98
2022-12-03T05:38:44.532Z,2.98
2022-12-03T05:39:45.900Z,2.97
2022-12-03T05:40:50.405Z,3.01
2022-12-03T05:41:51.726Z,3.01
2022-12-03T05:42:53.078Z,2.96
2022-12-03T05:43:54.659Z,2.93
2022-12-03T05:44:56.309Z,2.94
2022-12-03T05:45:57.900Z,2.91
2022-12-03T05:46:59.327Z,2.95
2022-12-03T05:48:01.241Z,2.94
2022-12-03T05:49:02.637Z,2.96
2022-12-03T05:50:04.239Z,2.93
2022-12-03T05:51:05.595Z,2.97
2022-12-03T05:52:07.019Z,2.96
2022-12-03T05:53:08.460Z,2.95
2022-12-03T05:54:09.865Z,2.93
2022-12-03T05:55:11.317Z,2.91
2022-12-03T05:56:12.694Z,2.90
2022-12-03T05:57:14.144Z,2.91
2022-12-03T05:58:15.487Z,2.92
2022-12-03T05:59:16.830Z,2.87
2022-12-03T06:00:29.500Z,2.92
2022-12-03T06:01:30.870Z,2.92
2022-12-03T06:02:32.406Z,2.90
2022-12-03T06:03:34.886Z,2.92
2022-12-03T06:04:36.312Z,2.93
2022-12-03T06:05:37.653Z,2.89
2022-12-03T06:06:39.146Z,2.85
2022-12-03T06:07:40.912Z,2.85
2022-12-03T06:08:42.347Z,2.85
2022-12-03T06:09:43.744Z,2.89
2022-12-03T06:10:45.063Z,2.90
2022-12-03T06:11:46.469Z,2.86
2022-12-03T06:12:47.800Z,2.85
2022-12-03T06:13:51.063Z,2.90
2022-12-03T06:14:53.407Z,2.89
2022-12-03T06:15:55.060Z,2.91
2022-12-03T06:16:56.447Z,2.91
2022-12-03T06:17:58.275Z,2.91
2022-12-03T06:18:59.622Z,2.88
2022-12-03T06:20:01.028Z,2.88
2022-12-03T06:21:02.391Z,2.90
2022-12-03T06:22:03.793Z,2.89
2022-12-03T06:23:05.280Z,2.87
2022-12-03T06:24:06.714Z,2.87
2022-12-03T06:25:08.324Z,2.84
2022-12-03T06:26:10.440Z,2.88
2022-12-03T06:27:11.988Z,2.89
2022-12-03T06:28:13.344Z,2.92
2022-12-03T06:29:14.721Z,2.94
2022-12-03T06:30:16.138Z,2.93
2022-12-03T06:31:17.581Z,2.95
2022-12-03T06:32:18.957Z,2.96
2022-12-03T06:33:20.311Z,2.96
2022-12-03T06:34:21.707Z,2.91
2022-12-03T06:35:23.195Z,2.89
2022-12-03T06:36:24.620Z,2.87
2022-12-03T06:37:26.123Z,2.87
2022-12-03T06:38:27.483Z,2.89
2022-12-03T06:39:28.946Z,2.89
2022-12-03T06:40:30.372Z,2.89
2022-12-03T06:41:31.728Z,2.89
2022-12-03T06:42:33.137Z,2.90
2022-12-03T06:43:34.551Z,2.95
2022-12-03T06:44:35.949Z,2.92
2022-12-03T06:45:37.713Z,2.99
2022-12-03T06:46:39.194Z,3.03
2022-12-03T06:47:40.620Z,3.01
2022-12-03T06:48:41.942Z,2.98
2022-12-03T06:49:43.341Z,2.96
2022-12-03T06:50:44.689Z,2.94
2022-12-03T06:51:46.046Z,2.97
2022-12-03T06:52:47.400Z,3.00
2022-12-03T06:53:48.726Z,3.00
2022-12-03T06:54:50.104Z,3.02
2022-12-03T06:55:51.487Z,2.98
2022-12-03T06:56:52.851Z,2.96
2022-12-03T06:57:54.212Z,2.95
2022-12-03T06:58:55.669Z,2.95
2022-12-03T06:59:57.038Z,2.96
2022-12-03T07:00:58.416Z,2.97
2022-12-03T07:02:00.001Z,2.96
2022-12-03T07:03:01.479Z,3.03
2022-12-03T07:04:05.253Z,3.07
2022-12-03T07:05:06.800Z,3.07
2022-12-03T07:06:08.132Z,3.05
2022-12-03T07:07:09.496Z,3.04
2022-12-03T07:08:13.052Z,3.04
2022-12-03T07:09:14.632Z,3.08
2022-12-03T07:10:19.199Z,3.07
2022-12-03T07:11:22.927Z,3.04
2022-12-03T07:12:24.404Z,3.03
2022-12-03T07:13:25.764Z,3.10
2022-12-03T07:14:27.173Z,3.07
2022-12-03T07:15:28.591Z,3.06
2022-12-03T07:16:29.964Z,3.03
2022-12-03T07:17:31.317Z,3.05
2022-12-03T07:18:32.718Z,3.07
2022-12-03T07:19:34.073Z,3.04
2022-12-03T07:20:35.439Z,2.99
2022-12-03T07:21:36.814Z,2.97
2022-12-03T07:22:38.240Z,2.96
2022-12-03T07:23:39.629Z,3.06
2022-12-03T07:24:41.045Z,3.06
2022-12-03T07:25:42.534Z,3.05
2022-12-03T07:26:43.916Z,3.03
2022-12-03T07:27:45.273Z,3.05
2022-12-03T07:28:47.055Z,3.02
2022-12-03T07:29:48.532Z,2.99
2022-12-03T07:30:49.947Z,3.03
2022-12-03T07:31:54.398Z,3.03
2022-12-03T07:32:55.817Z,3.07
2022-12-03T07:33:59.536Z,3.02
2022-12-03T07:35:00.991Z,2.99
2022-12-03T07:36:02.419Z,2.99
2022-12-03T07:37:03.771Z,2.98
2022-12-03T07:38:07.729Z,2.99
2022-12-03T07:39:09.143Z,3.06
2022-12-03T07:40:10.857Z,3.04
2022-12-03T07:41:12.217Z,3.11
2022-12-03T07:42:13.610Z,3.10
2022-12-03T07:43:15.046Z,3.07
2022-12-03T07:44:16.479Z,3.07
2022-12-03T07:45:17.965Z,3.08
2022-12-03T07:46:19.406Z,3.06
2022-12-03T07:47:20.831Z,3.07
2022-12-03T07:48:22.158Z,3.06
2022-12-03T07:49:23.633Z,3.05
2022-12-03T07:50:25.152Z,3.06
2022-12-03T07:51:31.988Z,3.07
2022-12-03T07:52:33.782Z,3.05
2022-12-03T07:53:35.185Z,3.10
2022-12-03T07:54:36.617Z,3.14
2022-12-03T07:55:37.990Z,3.14
2022-12-03T07:56:39.449Z,3.15
2022-12-03T07:57:40.862Z,3.12
2022-12-03T07:58:42.256Z,3.12
2022-12-03T07:59:43.672Z,3.16
2022-12-03T08:00:45.264Z,3.13
2022-12-03T08:01:46.706Z,3.10
2022-12-03T08:02:48.222Z,3.10
2022-12-03T08:03:49.766Z,3.13
2022-12-03T08:04:51.461Z,3.13
2022-12-03T08:05:53.178Z,3.15
2022-12-03T08:06:54.728Z,3.16
2022-12-03T08:07:56.233Z,3.18
2022-12-03T08:08:57.596Z,3.16
2022-12-03T08:09:59.084Z,3.15
2022-12-03T08:11:00.846Z,3.19
2022-12-03T08:12:06.308Z,3.23
2022-12-03T08:13:11.399Z,3.17
2022-12-03T08:14:13.684Z,3.15
2022-12-03T08:15:16.483Z,3.15
2022-12-03T08:16:19.602Z,3.15
2022-12-03T08:17:21.293Z,3.18
2022-12-03T08:18:24.303Z,3.21
2022-12-03T08:19:26.760Z,3.22
2022-12-03T08:20:29.521Z,3.17
2022-12-03T08:21:34.430Z,3.20
2022-12-03T08:22:35.799Z,3.27
2022-12-03T08:23:37.422Z,3.28
2022-12-03T08:24:38.838Z,3.24
2022-12-03T08:25:40.199Z,3.25
2022-12-03T08:26:41.922Z,3.28
2022-12-03T08:27:43.367Z,3.30
2022-12-03T08:28:44.802Z,3.31
2022-12-03T08:29:46.627Z,3.33
2022-12-03T08:31:02.514Z,3.38
2022-12-03T08:32:06.046Z,3.40
2022-12-03T08:33:16.002Z,3.44
2022-12-03T08:34:20.418Z,3.41
2022-12-03T08:35:23.377Z,3.39
2022-12-03T08:36:32.690Z,3.43
2022-12-03T08:37:35.764Z,3.38
2022-12-03T08:38:37.194Z,3.36
2022-12-03T08:39:43.902Z,3.37
2022-12-03T08:40:45.959Z,3.45
2022-12-03T08:41:53.605Z,3.44
2022-12-03T08:42:55.004Z,3.44
2022-12-03T08:43:58.776Z,3.48
2022-12-03T08:45:20.041Z,3.42
2022-12-03T08:46:24.311Z,3.46
2022-12-03T08:47:26.033Z,3.43
2022-12-03T08:48:29.263Z,3.41
2022-12-03T08:49:30.717Z,3.44
2022-12-03T08:50:39.744Z,3.50
2022-12-03T08:51:41.117Z,3.47
2022-12-03T08:52:42.531Z,3.45
2022-12-03T08:53:46.169Z,3.48
2022-12-03T08:54:57.242Z,3.49
2022-12-03T08:56:01.959Z,3.47
2022-12-03T08:57:21.801Z,3.50
2022-12-03T08:58:42.017Z,3.53
2022-12-03T08:59:45.572Z,3.55
2022-12-03T09:00:53.984Z,3.57
2022-12-03T09:01:55.908Z,3.56
2022-12-03T09:03:00.267Z,3.56
2022-12-03T09:04:20.318Z,3.61
2022-12-03T09:05:29.952Z,3.64
2022-12-03T09:06:31.347Z,3.71
2022-12-03T09:07:32.809Z,3.69
2022-12-03T09:08:34.292Z,3.68
2022-12-03T09:09:35.723Z,3.66
2022-12-03T09:10:37.838Z,3.67
2022-12-03T09:11:42.422Z,3.68
2022-12-03T09:12:43.790Z,3.69
2022-12-03T09:13:47.955Z,3.68
2022-12-03T09:14:49.383Z,3.69
2022-12-03T09:15:50.875Z,3.64
2022-12-03T09:16:52.900Z,3.68
2022-12-03T09:17:54.383Z,3.68
2022-12-03T09:18:55.691Z,3.70
2022-12-03T09:19:57.047Z,3.73
2022-12-03T09:20:58.512Z,3.72
2022-12-03T09:21:59.867Z,3.70
2022-12-03T09:23:01.284Z,3.73
2022-12-03T09:24:02.616Z,3.76
2022-12-03T09:25:04.086Z,3.82
2022-12-03T09:26:05.528Z,3.79
2022-12-03T09:27:06.985Z,3.78
2022-12-03T09:28:08.430Z,3.76
2022-12-03T09:29:12.357Z,3.76
2022-12-03T09:30:14.398Z,3.80
2022-12-03T09:31:16.476Z,3.80
2022-12-03T09:32:18.768Z,3.75
2022-12-03T09:33:20.498Z,3.77
2022-12-03T09:34:21.826Z,3.77
2022-12-03T09:35:23.477Z,3.74
2022-12-03T09:36:24.854Z,3.80
2022-12-03T09:37:26.236Z,3.80
2022-12-03T09:38:27.692Z,3.79
2022-12-03T09:39:29.318Z,3.76
2022-12-03T09:40:30.864Z,3.75
2022-12-03T09:41:32.363Z,3.77
2022-12-03T09:42:33.940Z,3.78
2022-12-03T09:44:02.586Z,3.78
2022-12-03T09:44:57.691Z,3.82
2022-12-03T09:45:59.948Z,3.83
2022-12-03T09:47:03.010Z,3.83
2022-12-03T09:48:04.629Z,3.78
2022-12-03T09:49:12.334Z,3.82
2022-12-03T09:50:20.802Z,3.80
2022-12-03T09:51:23.541Z,3.80
2022-12-03T09:52:27.166Z,3.81
2022-12-03T09:53:29.042Z,3.82
2022-12-03T09:54:31.512Z,3.82
2022-12-03T09:55:32.903Z,3.82
2022-12-03T09:56:36.798Z,3.91
2022-12-03T09:57:38.280Z,3.93
2022-12-03T09:58:39.639Z,3.89
2022-12-03T09:59:40.942Z,3.86
2022-12-03T10:00:43.677Z,3.81
2022-12-03T10:01:45.261Z,3.83
2022-12-03T10:02:47.419Z,3.88
2022-12-03T10:03:52.048Z,3.90
2022-12-03T10:04:53.636Z,3.86
2022-12-03T10:05:55.266Z,3.85
2022-12-03T10:06:58.203Z,3.84
2022-12-03T10:08:07.567Z,3.90
2022-12-03T10:09:11.448Z,3.89
2022-12-03T10:10:20.714Z,3.88
2022-12-03T10:11:24.106Z,3.93
2022-12-03T10:12:26.142Z,3.99
2022-12-03T10:13:28.788Z,4.13
2022-12-03T10:14:30.162Z,4.07
2022-12-03T10:15:32.332Z,4.06
2022-12-03T10:16:41.342Z,4.03
2022-12-03T10:17:42.770Z,4.01
2022-12-03T10:18:46.874Z,4.05
2022-12-03T10:19:48.334Z,4.06
2022-12-03T10:20:50.954Z,4.09
2022-12-03T10:21:52.378Z,4.13
2022-12-03T10:24:18.917Z,4.26
2022-12-03T10:25:22.718Z,4.31
2022-12-03T10:26:39.713Z,4.32
2022-12-03T10:27:41.393Z,4.30
2022-12-03T10:28:43.726Z,4.28
2022-12-03T10:29:53.211Z,4.30
2022-12-03T10:30:55.730Z,4.35
2022-12-03T10:32:01.542Z,4.39
2022-12-03T10:33:14.345Z,4.39
2022-12-03T10:34:23.600Z,4.41
2022-12-03T10:35:40.627Z,4.42
2022-12-03T10:36:42.052Z,4.42
2022-12-03T10:38:02.200Z,4.38
2022-12-03T10:39:11.556Z,4.33
2022-12-03T10:40:13.082Z,4.32
2022-12-03T10:41:24.980Z,4.30
2022-12-03T10:42:27.366Z,4.31
2022-12-03T10:43:28.749Z,4.32
2022-12-03T10:44:33.552Z,4.31
2022-12-03T10:45:34.919Z,4.32
2022-12-03T10:46:36.492Z,4.28
2022-12-03T10:47:38.111Z,4.20
2022-12-03T10:48:39.640Z,4.15
2022-12-03T10:49:41.833Z,4.19
2022-12-03T10:50:50.831Z,4.19
2022-12-03T10:51:52.253Z,4.16
2022-12-03T10:52:53.863Z,4.10
2022-12-03T10:53:55.312Z,4.10
2022-12-03T10:54:56.865Z,4.08
2022-12-03T10:56:03.233Z,4.05
2022-12-03T10:57:04.677Z,4.05
2022-12-03T10:58:08.361Z,4.02
2022-12-03T10:59:32.852Z,3.98
2022-12-03T11:00:34.867Z,3.97
2022-12-03T11:01:36.316Z,4.03
2022-12-03T11:02:37.751Z,3.95
2022-12-03T11:03:39.194Z,4.01
2022-12-03T11:04:40.648Z,3.95
2022-12-03T11:05:42.104Z,3.90
2022-12-03T11:06:43.492Z,3.89
2022-12-03T11:07:44.940Z,3.90
2022-12-03T11:08:58.359Z,3.91
2022-12-03T11:10:01.846Z,3.93
2022-12-03T11:11:07.896Z,3.92
2022-12-03T11:12:17.646Z,3.95
2022-12-03T11:13:29.654Z,3.95
2022-12-03T11:14:49.397Z,3.93
2022-12-03T11:15:50.836Z,3.94
2022-12-03T11:16:52.251Z,3.95
2022-12-03T11:17:54.036Z,3.93
2022-12-03T11:18:55.510Z,3.94
2022-12-03T11:20:00.266Z,3.93
2022-12-03T11:21:07.355Z,3.91
2022-12-03T11:22:08.691Z,3.99
2022-12-03T11:23:10.612Z,3.99
2022-12-03T11:24:16.579Z,3.99
2022-12-03T11:25:26.686Z,4.01
2022-12-03T11:26:28.101Z,4.03
2022-12-03T11:27:29.459Z,4.02
2022-12-03T11:28:31.620Z,4.00
2022-12-03T11:29:48.350Z,3.97
2022-12-03T11:30:49.738Z,4.01
2022-12-03T11:31:52.891Z,4.12
2022-12-03T11:32:54.265Z,4.07
2022-12-03T11:34:15.691Z,4.02
2022-12-03T11:35:22.881Z,4.01
2022-12-03T11:36:42.152Z,4.00
2022-12-03T11:37:45.634Z,3.92
2022-12-03T11:38:52.817Z,3.92
2022-12-03T11:39:55.043Z,3.92
2022-12-03T11:41:25.898Z,3.90
2022-12-03T11:42:28.742Z,3.91
2022-12-03T11:43:48.505Z,3.94
2022-12-03T11:45:09.767Z,3.93
2022-12-03T11:46:11.232Z,3.91
2022-12-03T11:47:14.733Z,3.94
2022-12-03T11:48:17.006Z,3.89
2022-12-03T11:49:21.333Z,3.91
2022-12-03T11:50:27.482Z,3.86
2022-12-03T11:51:29.384Z,3.80
2022-12-03T11:52:32.869Z,3.79
2022-12-03T11:53:35.103Z,3.78
2022-12-03T11:54:36.619Z,3.78
2022-12-03T11:55:39.423Z,3.78
2022-12-03T11:56:44.035Z,3.68
2022-12-03T11:57:45.743Z,3.69
2022-12-03T11:58:47.581Z,3.67
2022-12-03T12:00:03.997Z,3.66
2022-12-03T12:01:13.975Z,3.67
2022-12-03T12:02:21.555Z,3.69
2022-12-03T12:03:23.008Z,3.70
2022-12-03T12:04:29.388Z,3.73
2022-12-03T12:05:32.083Z,3.75
2022-12-03T12:06:42.265Z,3.84
2022-12-03T12:07:44.075Z,3.86
2022-12-03T12:08:51.430Z,3.89
2022-12-03T12:09:55.831Z,3.90
2022-12-03T12:10:57.877Z,3.91
2022-12-03T12:12:17.277Z,3.92
2022-12-03T12:13:30.749Z,3.97
2022-12-03T12:14:32.236Z,3.86
2022-12-03T12:15:39.833Z,3.90
2022-12-03T12:16:42.914Z,3.80
2022-12-03T12:17:44.473Z,3.80
2022-12-03T12:18:52.406Z,3.70
2022-12-03T12:20:31.974Z,3.63
2022-12-03T12:21:45.235Z,3.65
2022-12-03T12:22:46.574Z,3.63
2022-12-03T12:23:47.932Z,3.54
2022-12-03T12:24:50.472Z,3.48
2022-12-03T12:25:54.380Z,3.48
2022-12-03T12:26:56.923Z,3.53
2022-12-03T12:27:58.262Z,3.51
2022-12-03T12:28:59.619Z,3.49
2022-12-03T12:30:02.494Z,3.53
2022-12-03T12:31:09.939Z,3.54
2022-12-03T12:32:11.389Z,3.58
2022-12-03T12:33:16.527Z,3.47
2022-12-03T12:34:17.881Z,3.46
2022-12-03T12:35:26.739Z,3.41
2022-12-03T12:36:28.102Z,3.43
2022-12-03T12:37:34.273Z,3.39
2022-12-03T12:38:35.652Z,3.40
2022-12-03T12:39:37.071Z,3.42
2022-12-03T12:40:39.654Z,3.46
2022-12-03T12:41:41.659Z,3.50
2022-12-03T12:42:50.986Z,3.51
2022-12-03T12:43:52.375Z,3.52
2022-12-03T12:44:54.575Z,3.51
2022-12-03T12:45:59.473Z,3.52
2022-12-03T12:47:10.965Z,3.54
2022-12-03T12:48:15.291Z,3.53
2022-12-03T12:49:16.874Z,3.48
2022-12-03T12:50:18.695Z,3.48
2022-12-03T12:51:20.062Z,3.43
2022-12-03T12:52:21.484Z,3.32
2022-12-03T12:53:27.246Z,3.32
2022-12-03T12:54:28.709Z,3.37
2022-12-03T12:55:30.089Z,3.44
2022-12-03T12:56:31.882Z,3.45
2022-12-03T12:57:33.797Z,3.39
2022-12-03T12:58:35.820Z,3.39
2022-12-03T12:59:37.233Z,3.37
2022-12-03T13:00:38.597Z,3.32
2022-12-03T13:01:40.479Z,3.35
2022-12-03T13:02:43.823Z,3.30
2022-12-03T13:03:45.279Z,3.32
2022-12-03T13:04:46.644Z,3.32
2022-12-03T13:05:49.026Z,3.26
2022-12-03T13:06:52.387Z,3.19
2022-12-03T13:07:54.584Z,3.24
2022-12-03T13:08:56.736Z,3.23
2022-12-03T13:09:59.558Z,3.22
2022-12-03T13:11:01.618Z,3.24
2022-12-03T13:12:03.662Z,3.30
2022-12-03T13:13:26.059Z,3.29
2022-12-03T13:14:31.278Z,3.30
2022-12-03T13:15:38.322Z,3.37
2022-12-03T13:16:39.842Z,3.34
2022-12-03T13:17:41.256Z,3.34
2022-12-03T13:18:53.950Z,3.32
2022-12-03T13:20:05.527Z,3.33
2022-12-03T13:21:11.644Z,3.38
2022-12-03T13:22:15.561Z,3.32
2022-12-03T13:23:27.500Z,3.30
2022-12-03T13:24:31.057Z,3.34
2022-12-03T13:25:58.195Z,3.35
2022-12-03T13:26:56.329Z,3.30
2022-12-03T13:27:57.712Z,3.29
2022-12-03T13:29:01.620Z,3.35
2022-12-03T13:30:15.332Z,3.32
2022-12-03T13:31:21.001Z,3.31
2022-12-03T13:32:30.900Z,3.32
2022-12-03T13:33:33.090Z,3.34
2022-12-03T13:34:34.729Z,3.31
2022-12-03T13:35:36.490Z,3.29
2022-12-03T13:36:44.556Z,3.45
2022-12-03T13:37:45.925Z,3.48
2022-12-03T13:38:47.315Z,3.42
2022-12-03T13:39:49.937Z,3.41
2022-12-03T13:40:59.266Z,3.31
2022-12-03T13:42:20.885Z,3.28
2022-12-03T13:43:22.271Z,3.33
2022-12-03T13:44:23.663Z,3.29
2022-12-03T13:45:45.372Z,3.26
2022-12-03T13:46:47.081Z,3.29
2022-12-03T13:48:01.956Z,3.21
2022-12-03T13:49:03.542Z,3.20
2022-12-03T13:50:15.917Z,3.19
2022-12-03T13:51:26.241Z,3.29
2022-12-03T13:52:32.537Z,3.31
2022-12-03T13:53:36.334Z,3.34
2022-12-03T13:54:38.517Z,3.29
2022-12-03T13:55:42.788Z,3.25
2022-12-03T13:56:44.163Z,3.27
2022-12-03T13:57:45.500Z,3.23
2022-12-03T13:58:46.890Z,3.25
2022-12-03T13:59:48.295Z,3.25
2022-12-03T14:00:49.712Z,3.27
2022-12-03T14:01:51.170Z,3.34